GIA284 WIII-WMKK
Flight info
| Callsign | GIA284 |
|---|---|
| Flight time | 1h 44m |
| Altitude | 36000 |
| Route | DOLTA A585 PKU/N0464F370 N633 SALAX SALAX2J |
| Aircraft | B738/M-SDE2E3FGHIRWXY/LB1 |
Departure
| Time | 2026-05-06 12:53 |
|---|---|
| Airport | Soekarno-Hatta International Airport (WIII) |
Arrival
| Time | 2026-05-06 14:37 |
|---|---|
| Airport | Kuala Lumpur International Airport (WMKK) |
| Time | Latitude | Longitude | Altitude | Speed | Heading |
|---|---|---|---|---|---|
| 2026-05-06 12:09 | -6.11798 | 106.66378 | 37 ft | 0 kts | 134° |
| 2026-05-06 12:36 | -6.11788 | 106.66367 | 36 ft | 2 kts | 135° |
| 2026-05-06 12:36 | -6.11776 | 106.66355 | 37 ft | 2 kts | 136° |
| 2026-05-06 12:36 | -6.11764 | 106.66344 | 37 ft | 2 kts | 137° |
| 2026-05-06 12:37 | -6.11762 | 106.66342 | 37 ft | 0 kts | 138° |
| 2026-05-06 12:39 | -6.11752 | 106.66333 | 37 ft | 2 kts | 140° |
| 2026-05-06 12:39 | -6.11739 | 106.66323 | 36 ft | 2 kts | 144° |
| 2026-05-06 12:39 | -6.11725 | 106.66314 | 37 ft | 2 kts | 156° |
| 2026-05-06 12:40 | -6.11709 | 106.66310 | 36 ft | 2 kts | 205° |
| 2026-05-06 12:40 | -6.11700 | 106.66318 | 35 ft | 1 kts | 243° |
| 2026-05-06 12:40 | -6.11699 | 106.66319 | 35 ft | 0 kts | 244° |
| 2026-05-06 12:41 | -6.11704 | 106.66309 | 35 ft | 6 kts | 247° |
| 2026-05-06 12:42 | -6.11733 | 106.66238 | 35 ft | 16 kts | 249° |
| 2026-05-06 12:42 | -6.11776 | 106.66130 | 36 ft | 17 kts | 247° |
| 2026-05-06 12:42 | -6.11787 | 106.66024 | 37 ft | 16 kts | 309° |
| 2026-05-06 12:42 | -6.11703 | 106.65984 | 37 ft | 0 kts | 338° |
| 2026-05-06 12:43 | -6.11676 | 106.65974 | 37 ft | 9 kts | 338° |
| 2026-05-06 12:43 | -6.11587 | 106.65936 | 36 ft | 18 kts | 336° |
| 2026-05-06 12:44 | -6.11516 | 106.65840 | 36 ft | 19 kts | 249° |
| 2026-05-06 12:44 | -6.11566 | 106.65712 | 37 ft | 21 kts | 248° |
| 2026-05-06 12:44 | -6.11624 | 106.65566 | 37 ft | 24 kts | 248° |
| 2026-05-06 12:44 | -6.11692 | 106.65397 | 37 ft | 27 kts | 248° |
| 2026-05-06 12:45 | -6.11761 | 106.65224 | 38 ft | 26 kts | 248° |
| 2026-05-06 12:45 | -6.11826 | 106.65061 | 38 ft | 24 kts | 248° |
| 2026-05-06 12:45 | -6.11945 | 106.64762 | 36 ft | 22 kts | 248° |
| 2026-05-06 12:46 | -6.12001 | 106.64620 | 38 ft | 22 kts | 248° |
| 2026-05-06 12:46 | -6.12055 | 106.64481 | 38 ft | 21 kts | 249° |
| 2026-05-06 12:46 | -6.12110 | 106.64348 | 38 ft | 20 kts | 248° |
| 2026-05-06 12:46 | -6.12162 | 106.64219 | 37 ft | 20 kts | 248° |
| 2026-05-06 12:47 | -6.12208 | 106.64102 | 37 ft | 17 kts | 248° |
| 2026-05-06 12:47 | -6.12240 | 106.64023 | 37 ft | 6 kts | 248° |
| 2026-05-06 12:47 | -6.12241 | 106.64018 | 38 ft | 0 kts | 248° |
| 2026-05-06 12:48 | -6.12251 | 106.63994 | 37 ft | 9 kts | 248° |
| 2026-05-06 12:49 | -6.12240 | 106.63913 | 37 ft | 12 kts | 313° |
| 2026-05-06 12:49 | -6.12221 | 106.63898 | 39 ft | 0 kts | 328° |
| 2026-05-06 12:50 | -6.12204 | 106.63891 | 40 ft | 7 kts | 343° |
| 2026-05-06 12:50 | -6.12135 | 106.63910 | 40 ft | 14 kts | 31° |
| 2026-05-06 12:50 | -6.12065 | 106.63975 | 39 ft | 11 kts | 66° |
| 2026-05-06 12:51 | -6.12062 | 106.63982 | 39 ft | 0 kts | 67° |
| 2026-05-06 12:52 | -6.12040 | 106.64036 | 37 ft | 35 kts | 68° |
| 2026-05-06 12:52 | -6.11851 | 106.64508 | 39 ft | 109 kts | 68° |
| 2026-05-06 12:52 | -6.11496 | 106.65405 | 40 ft | 169 kts | 68° |
| 2026-05-06 12:53 | -6.11051 | 106.66547 | 725 ft | 170 kts | 69° |
| 2026-05-06 12:53 | -6.10556 | 106.67607 | 1557 ft | 174 kts | 48° |
| 2026-05-06 12:53 | -6.09481 | 106.68356 | 1885 ft | 204 kts | 32° |
| 2026-05-06 12:53 | -6.08189 | 106.69143 | 2109 ft | 228 kts | 33° |
| 2026-05-06 12:54 | -6.06807 | 106.70009 | 2574 ft | 239 kts | 33° |
| 2026-05-06 12:54 | -6.05385 | 106.70918 | 3094 ft | 249 kts | 34° |
| 2026-05-06 12:54 | -6.03880 | 106.71892 | 3523 ft | 263 kts | 34° |
| 2026-05-06 12:54 | -6.02326 | 106.72905 | 4308 ft | 267 kts | 34° |
| 2026-05-06 12:55 | -6.00763 | 106.73925 | 5190 ft | 269 kts | 34° |
| 2026-05-06 12:55 | -5.99017 | 106.74615 | 6001 ft | 276 kts | 9° |
| 2026-05-06 12:55 | -5.97094 | 106.74415 | 6759 ft | 284 kts | 341° |
| 2026-05-06 12:55 | -5.95385 | 106.73382 | 7498 ft | 291 kts | 322° |
| 2026-05-06 12:56 | -5.93866 | 106.72009 | 8241 ft | 296 kts | 317° |
| 2026-05-06 12:56 | -5.92389 | 106.70548 | 8997 ft | 300 kts | 316° |
| 2026-05-06 12:56 | -5.90913 | 106.69060 | 9730 ft | 304 kts | 316° |
| 2026-05-06 12:56 | -5.89403 | 106.67541 | 10335 ft | 312 kts | 316° |
| 2026-05-06 12:57 | -5.87830 | 106.65970 | 10761 ft | 325 kts | 316° |
| 2026-05-06 12:57 | -5.86208 | 106.64361 | 11356 ft | 330 kts | 316° |
| 2026-05-06 12:57 | -5.84561 | 106.62734 | 12042 ft | 333 kts | 316° |
| 2026-05-06 12:57 | -5.82879 | 106.61118 | 12728 ft | 336 kts | 322° |
| 2026-05-06 12:58 | -5.80840 | 106.60003 | 13375 ft | 336 kts | 344° |
| 2026-05-06 12:58 | -5.78574 | 106.59408 | 14006 ft | 338 kts | 349° |
| 2026-05-06 12:58 | -5.76266 | 106.58915 | 14598 ft | 341 kts | 350° |
| 2026-05-06 12:58 | -5.73935 | 106.58443 | 15215 ft | 343 kts | 350° |
| 2026-05-06 12:59 | -5.71588 | 106.57976 | 15823 ft | 345 kts | 351° |
| 2026-05-06 12:59 | -5.69199 | 106.57700 | 16415 ft | 347 kts | 359° |
| 2026-05-06 12:59 | -5.66778 | 106.57608 | 17010 ft | 349 kts | 0° |
| 2026-05-06 12:59 | -5.64339 | 106.57552 | 17605 ft | 352 kts | 0° |
| 2026-05-06 13:00 | -5.61884 | 106.57507 | 18183 ft | 355 kts | 0° |
| 2026-05-06 13:00 | -5.59405 | 106.57467 | 18681 ft | 357 kts | 0° |
| 2026-05-06 13:00 | -5.56908 | 106.57430 | 19178 ft | 360 kts | 0° |
| 2026-05-06 13:00 | -5.54392 | 106.57392 | 19678 ft | 362 kts | 0° |
| 2026-05-06 13:01 | -5.51864 | 106.57354 | 20166 ft | 365 kts | 0° |
| 2026-05-06 13:01 | -5.49334 | 106.57023 | 20613 ft | 371 kts | 343° |
| 2026-05-06 13:01 | -5.47058 | 106.55851 | 21069 ft | 377 kts | 323° |
| 2026-05-06 13:01 | -5.45240 | 106.53943 | 21534 ft | 381 kts | 307° |
| 2026-05-06 13:02 | -5.43852 | 106.51666 | 21977 ft | 386 kts | 299° |
| 2026-05-06 13:02 | -5.42607 | 106.49265 | 22397 ft | 389 kts | 297° |
| 2026-05-06 13:02 | -5.41383 | 106.46830 | 22835 ft | 392 kts | 297° |
| 2026-05-06 13:02 | -5.40149 | 106.44378 | 23280 ft | 395 kts | 297° |
| 2026-05-06 13:03 | -5.38908 | 106.41910 | 23652 ft | 398 kts | 298° |
| 2026-05-06 13:03 | -5.37655 | 106.39419 | 24011 ft | 400 kts | 297° |
| 2026-05-06 13:03 | -5.36399 | 106.36920 | 24379 ft | 402 kts | 297° |
| 2026-05-06 13:03 | -5.35136 | 106.34408 | 24751 ft | 404 kts | 297° |
| 2026-05-06 13:04 | -5.33866 | 106.31884 | 25111 ft | 406 kts | 297° |
| 2026-05-06 13:04 | -5.32590 | 106.29346 | 25460 ft | 409 kts | 297° |
| 2026-05-06 13:04 | -5.31306 | 106.26794 | 25811 ft | 411 kts | 297° |
| 2026-05-06 13:04 | -5.30016 | 106.24229 | 26160 ft | 413 kts | 297° |
| 2026-05-06 13:05 | -5.28716 | 106.21647 | 26504 ft | 415 kts | 297° |
| 2026-05-06 13:05 | -5.27412 | 106.19056 | 26844 ft | 418 kts | 297° |
| 2026-05-06 13:05 | -5.26099 | 106.16447 | 27183 ft | 420 kts | 297° |
| 2026-05-06 13:05 | -5.23861 | 106.12001 | 27758 ft | 423 kts | 297° |
| 2026-05-06 13:06 | -5.22374 | 106.09045 | 28131 ft | 426 kts | 297° |
| 2026-05-06 13:06 | -5.21037 | 106.06390 | 28458 ft | 428 kts | 297° |
| 2026-05-06 13:06 | -5.19694 | 106.03722 | 28783 ft | 430 kts | 297° |
| 2026-05-06 13:06 | -5.18341 | 106.01035 | 29089 ft | 432 kts | 297° |
| 2026-05-06 13:07 | -5.16985 | 105.98344 | 29394 ft | 434 kts | 297° |
| 2026-05-06 13:07 | -5.15488 | 105.95711 | 29696 ft | 435 kts | 305° |
| 2026-05-06 13:07 | -5.13594 | 105.93341 | 29970 ft | 436 kts | 316° |
| 2026-05-06 13:07 | -5.11230 | 105.91437 | 30210 ft | 436 kts | 330° |
| 2026-05-06 13:08 | -5.07724 | 105.89486 | 30593 ft | 436 kts | 333° |
| 2026-05-06 13:08 | -5.05915 | 105.88511 | 30760 ft | 437 kts | 333° |
| 2026-05-06 13:08 | -5.03231 | 105.87059 | 30991 ft | 439 kts | 333° |
| 2026-05-06 13:08 | -5.00544 | 105.85583 | 31231 ft | 441 kts | 332° |
| 2026-05-06 13:09 | -4.97860 | 105.84087 | 31478 ft | 443 kts | 332° |
| 2026-05-06 13:09 | -4.95171 | 105.82571 | 31725 ft | 444 kts | 332° |
| 2026-05-06 13:09 | -4.92478 | 105.81043 | 31965 ft | 445 kts | 332° |
| 2026-05-06 13:09 | -4.89777 | 105.79503 | 32199 ft | 447 kts | 332° |
| 2026-05-06 13:10 | -4.87070 | 105.77959 | 32425 ft | 449 kts | 332° |
| 2026-05-06 13:10 | -4.84387 | 105.76428 | 32644 ft | 450 kts | 332° |
| 2026-05-06 13:10 | -4.81669 | 105.74878 | 32895 ft | 451 kts | 332° |
| 2026-05-06 13:10 | -4.78938 | 105.73321 | 33154 ft | 451 kts | 332° |
| 2026-05-06 13:11 | -4.76209 | 105.71765 | 33387 ft | 452 kts | 332° |
| 2026-05-06 13:11 | -4.73465 | 105.70202 | 33588 ft | 454 kts | 332° |
| 2026-05-06 13:11 | -4.70718 | 105.68637 | 33788 ft | 456 kts | 332° |
| 2026-05-06 13:11 | -4.67956 | 105.67065 | 33984 ft | 457 kts | 332° |
| 2026-05-06 13:12 | -4.65190 | 105.65489 | 34173 ft | 457 kts | 332° |
| 2026-05-06 13:12 | -4.62424 | 105.63914 | 34366 ft | 458 kts | 332° |
| 2026-05-06 13:12 | -4.59650 | 105.62335 | 34550 ft | 459 kts | 331° |
| 2026-05-06 13:12 | -4.56871 | 105.60753 | 34719 ft | 460 kts | 332° |
| 2026-05-06 13:13 | -4.54091 | 105.59170 | 34888 ft | 461 kts | 331° |
| 2026-05-06 13:13 | -4.51297 | 105.57580 | 35058 ft | 462 kts | 331° |
| 2026-05-06 13:13 | -4.48501 | 105.55989 | 35234 ft | 462 kts | 331° |
| 2026-05-06 13:13 | -4.45704 | 105.54397 | 35420 ft | 462 kts | 331° |
| 2026-05-06 13:14 | -4.42907 | 105.52805 | 35655 ft | 461 kts | 331° |
| 2026-05-06 13:14 | -4.40123 | 105.51221 | 35874 ft | 460 kts | 331° |
| 2026-05-06 13:14 | -4.37328 | 105.49631 | 35852 ft | 464 kts | 331° |
| 2026-05-06 13:15 | -4.31684 | 105.46421 | 35867 ft | 468 kts | 331° |
| 2026-05-06 13:15 | -4.26014 | 105.43196 | 35867 ft | 469 kts | 331° |
| 2026-05-06 13:16 | -4.20335 | 105.39966 | 35867 ft | 470 kts | 331° |
| 2026-05-06 13:16 | -4.14692 | 105.36757 | 35866 ft | 469 kts | 331° |
| 2026-05-06 13:17 | -4.09021 | 105.33533 | 35867 ft | 468 kts | 331° |
| 2026-05-06 13:17 | -4.03358 | 105.30314 | 35862 ft | 467 kts | 331° |
| 2026-05-06 13:18 | -3.97712 | 105.27104 | 35864 ft | 466 kts | 331° |
| 2026-05-06 13:18 | -3.92081 | 105.23904 | 35862 ft | 465 kts | 331° |
| 2026-05-06 13:19 | -3.86448 | 105.20725 | 35862 ft | 464 kts | 331° |
| 2026-05-06 13:19 | -3.80817 | 105.17560 | 35865 ft | 464 kts | 331° |
| 2026-05-06 13:20 | -3.75194 | 105.14397 | 35864 ft | 464 kts | 331° |
| 2026-05-06 13:20 | -3.69571 | 105.11233 | 35862 ft | 464 kts | 331° |
| 2026-05-06 13:21 | -3.63937 | 105.08062 | 35866 ft | 465 kts | 331° |
| 2026-05-06 13:21 | -3.58301 | 105.04890 | 35869 ft | 465 kts | 331° |
| 2026-05-06 13:22 | -3.52652 | 105.01711 | 35867 ft | 466 kts | 331° |
| 2026-05-06 13:22 | -3.46992 | 104.98527 | 35865 ft | 467 kts | 331° |
| 2026-05-06 13:23 | -3.41325 | 104.95338 | 35869 ft | 468 kts | 331° |
| 2026-05-06 13:23 | -3.35648 | 104.92145 | 35862 ft | 468 kts | 331° |
| 2026-05-06 13:24 | -3.29967 | 104.88950 | 35859 ft | 468 kts | 331° |
| 2026-05-06 13:24 | -3.24284 | 104.85754 | 35861 ft | 468 kts | 331° |
| 2026-05-06 13:25 | -3.18605 | 104.82561 | 35863 ft | 468 kts | 331° |
| 2026-05-06 13:25 | -3.12969 | 104.79392 | 35858 ft | 468 kts | 331° |
| 2026-05-06 13:26 | -3.07302 | 104.76206 | 35860 ft | 467 kts | 331° |
| 2026-05-06 13:26 | -3.01634 | 104.73020 | 35862 ft | 466 kts | 331° |
| 2026-05-06 13:27 | -2.95983 | 104.69844 | 35856 ft | 465 kts | 332° |
| 2026-05-06 13:27 | -2.90342 | 104.66674 | 35862 ft | 465 kts | 331° |
| 2026-05-06 13:28 | -2.85171 | 104.62832 | 35861 ft | 465 kts | 317° |
| 2026-05-06 13:28 | -2.80559 | 104.58285 | 35856 ft | 465 kts | 316° |
| 2026-05-06 13:29 | -2.75981 | 104.53726 | 35861 ft | 465 kts | 316° |
| 2026-05-06 13:29 | -2.71366 | 104.49186 | 35862 ft | 465 kts | 316° |
| 2026-05-06 13:30 | -2.66738 | 104.44669 | 35865 ft | 465 kts | 317° |
| 2026-05-06 13:30 | -2.62096 | 104.40148 | 35867 ft | 466 kts | 317° |
| 2026-05-06 13:31 | -2.57446 | 104.35619 | 35865 ft | 467 kts | 317° |
| 2026-05-06 13:31 | -2.52796 | 104.31088 | 35865 ft | 467 kts | 317° |
| 2026-05-06 13:32 | -2.48129 | 104.26541 | 35871 ft | 468 kts | 317° |
| 2026-05-06 13:32 | -2.43462 | 104.21995 | 35869 ft | 469 kts | 317° |
| 2026-05-06 13:33 | -2.38788 | 104.17441 | 35871 ft | 469 kts | 317° |
| 2026-05-06 13:33 | -2.34137 | 104.12911 | 35868 ft | 470 kts | 317° |
| 2026-05-06 13:34 | -2.29452 | 104.08348 | 35867 ft | 470 kts | 317° |
| 2026-05-06 13:34 | -2.24763 | 104.03781 | 35870 ft | 470 kts | 317° |
| 2026-05-06 13:35 | -2.20074 | 103.99215 | 35870 ft | 471 kts | 317° |
| 2026-05-06 13:35 | -2.15383 | 103.94648 | 35870 ft | 471 kts | 317° |
| 2026-05-06 13:36 | -2.10688 | 103.90077 | 35871 ft | 471 kts | 317° |
| 2026-05-06 13:36 | -2.05991 | 103.85504 | 35872 ft | 471 kts | 317° |
| 2026-05-06 13:37 | -2.01288 | 103.80926 | 35871 ft | 472 kts | 317° |
| 2026-05-06 13:37 | -1.96584 | 103.76347 | 35870 ft | 472 kts | 317° |
| 2026-05-06 13:38 | -1.91876 | 103.71766 | 35872 ft | 472 kts | 317° |
| 2026-05-06 13:38 | -1.87166 | 103.67182 | 35873 ft | 473 kts | 317° |
| 2026-05-06 13:39 | -1.82448 | 103.62590 | 35875 ft | 473 kts | 317° |
| 2026-05-06 13:39 | -1.77761 | 103.58030 | 35875 ft | 474 kts | 317° |
| 2026-05-06 13:40 | -1.73037 | 103.53434 | 35875 ft | 474 kts | 317° |
| 2026-05-06 13:40 | -1.68313 | 103.48837 | 35876 ft | 474 kts | 317° |
| 2026-05-06 13:41 | -1.63586 | 103.44238 | 35875 ft | 474 kts | 317° |
| 2026-05-06 13:41 | -1.58857 | 103.39638 | 35875 ft | 474 kts | 317° |
| 2026-05-06 13:42 | -1.54130 | 103.35041 | 35873 ft | 474 kts | 317° |
| 2026-05-06 13:42 | -1.49406 | 103.30445 | 35873 ft | 474 kts | 317° |
| 2026-05-06 13:43 | -1.44676 | 103.25845 | 35873 ft | 474 kts | 317° |
| 2026-05-06 13:43 | -1.39948 | 103.21247 | 35875 ft | 474 kts | 317° |
| 2026-05-06 13:44 | -1.35226 | 103.16655 | 35875 ft | 474 kts | 317° |
| 2026-05-06 13:44 | -1.30501 | 103.12060 | 35877 ft | 474 kts | 317° |
| 2026-05-06 13:45 | -1.25775 | 103.07464 | 35879 ft | 474 kts | 317° |
| 2026-05-06 13:45 | -1.18694 | 103.00579 | 35884 ft | 473 kts | 317° |
| 2026-05-06 13:46 | -1.13977 | 102.95992 | 35883 ft | 473 kts | 317° |
| 2026-05-06 13:46 | -1.09261 | 102.91406 | 35884 ft | 473 kts | 317° |
| 2026-05-06 13:47 | -1.04625 | 102.86903 | 35883 ft | 473 kts | 317° |
| 2026-05-06 13:47 | -0.99904 | 102.82329 | 35878 ft | 473 kts | 317° |
| 2026-05-06 13:48 | -0.95182 | 102.77754 | 35878 ft | 472 kts | 317° |
| 2026-05-06 13:48 | -0.90466 | 102.73183 | 35879 ft | 472 kts | 317° |
| 2026-05-06 13:49 | -0.85751 | 102.68612 | 35874 ft | 472 kts | 317° |
| 2026-05-06 13:49 | -0.81035 | 102.64040 | 35876 ft | 472 kts | 317° |
| 2026-05-06 13:50 | -0.76320 | 102.59469 | 35870 ft | 472 kts | 317° |
| 2026-05-06 13:50 | -0.71641 | 102.54933 | 35868 ft | 472 kts | 317° |
| 2026-05-06 13:51 | -0.66931 | 102.50367 | 35868 ft | 472 kts | 317° |
| 2026-05-06 13:51 | -0.62222 | 102.45802 | 35863 ft | 472 kts | 317° |
| 2026-05-06 13:52 | -0.57477 | 102.41203 | 35862 ft | 472 kts | 317° |
| 2026-05-06 13:52 | -0.52796 | 102.36666 | 35856 ft | 472 kts | 317° |
| 2026-05-06 13:53 | -0.48083 | 102.32097 | 35857 ft | 472 kts | 317° |
| 2026-05-06 13:53 | -0.44131 | 102.28267 | 35855 ft | 472 kts | 317° |
| 2026-05-06 13:54 | -0.39443 | 102.23724 | 35855 ft | 473 kts | 317° |
| 2026-05-06 13:54 | -0.34720 | 102.19145 | 35852 ft | 473 kts | 317° |
| 2026-05-06 13:55 | -0.29998 | 102.14568 | 35845 ft | 473 kts | 317° |
| 2026-05-06 13:55 | -0.25270 | 102.09986 | 35843 ft | 474 kts | 317° |
| 2026-05-06 13:56 | -0.20539 | 102.05401 | 35845 ft | 474 kts | 317° |
| 2026-05-06 13:56 | -0.15807 | 102.00815 | 35839 ft | 474 kts | 317° |
| 2026-05-06 13:57 | -0.11071 | 101.96224 | 35838 ft | 474 kts | 317° |
| 2026-05-06 13:57 | -0.06340 | 101.91640 | 35840 ft | 474 kts | 317° |
| 2026-05-06 13:58 | -0.01606 | 101.87051 | 35831 ft | 474 kts | 317° |
| 2026-05-06 13:58 | 0.03128 | 101.82463 | 35834 ft | 474 kts | 317° |
| 2026-05-06 13:59 | 0.07863 | 101.77873 | 35831 ft | 474 kts | 317° |
| 2026-05-06 13:59 | 0.12600 | 101.73283 | 35827 ft | 474 kts | 317° |
| 2026-05-06 14:00 | 0.17333 | 101.68695 | 35824 ft | 474 kts | 316° |
| 2026-05-06 14:00 | 0.21730 | 101.64433 | 35821 ft | 474 kts | 316° |
| 2026-05-06 14:01 | 0.26050 | 101.60245 | 35822 ft | 474 kts | 316° |
| 2026-05-06 14:01 | 0.30780 | 101.55660 | 35827 ft | 473 kts | 316° |
| 2026-05-06 14:02 | 0.35472 | 101.51111 | 35826 ft | 473 kts | 316° |
| 2026-05-06 14:02 | 0.40282 | 101.46647 | 35813 ft | 472 kts | 327° |
| 2026-05-06 14:03 | 0.43182 | 101.45156 | 35842 ft | 468 kts | 342° |
| 2026-05-06 14:03 | 0.46339 | 101.44435 | 35825 ft | 465 kts | 357° |
| 2026-05-06 14:03 | 0.52763 | 101.44742 | 35832 ft | 463 kts | 6° |
| 2026-05-06 14:04 | 0.59193 | 101.45275 | 35825 ft | 464 kts | 6° |
| 2026-05-06 14:04 | 0.65630 | 101.45761 | 35825 ft | 464 kts | 5° |
| 2026-05-06 14:05 | 0.72077 | 101.46209 | 35821 ft | 465 kts | 5° |
| 2026-05-06 14:05 | 0.78529 | 101.46644 | 35824 ft | 465 kts | 5° |
| 2026-05-06 14:06 | 0.84989 | 101.47080 | 35822 ft | 465 kts | 5° |
| 2026-05-06 14:06 | 0.91456 | 101.47518 | 35824 ft | 466 kts | 5° |
| 2026-05-06 14:07 | 0.97917 | 101.47956 | 35733 ft | 467 kts | 5° |
| 2026-05-06 14:07 | 1.01166 | 101.48177 | 35475 ft | 468 kts | 5° |
| 2026-05-06 14:07 | 1.04409 | 101.48397 | 35246 ft | 466 kts | 5° |
| 2026-05-06 14:08 | 1.07639 | 101.48616 | 35002 ft | 465 kts | 5° |
| 2026-05-06 14:08 | 1.10865 | 101.48836 | 34339 ft | 466 kts | 5° |
| 2026-05-06 14:08 | 1.14105 | 101.49056 | 33688 ft | 467 kts | 5° |
| 2026-05-06 14:08 | 1.17361 | 101.49277 | 32905 ft | 470 kts | 5° |
| 2026-05-06 14:09 | 1.20625 | 101.49499 | 32183 ft | 470 kts | 5° |
| 2026-05-06 14:09 | 1.23866 | 101.49718 | 31431 ft | 463 kts | 5° |
| 2026-05-06 14:09 | 1.27045 | 101.49933 | 30913 ft | 452 kts | 6° |
| 2026-05-06 14:09 | 1.30157 | 101.50143 | 30379 ft | 443 kts | 6° |
| 2026-05-06 14:10 | 1.33189 | 101.50348 | 29890 ft | 432 kts | 6° |
| 2026-05-06 14:10 | 1.36177 | 101.50550 | 29345 ft | 427 kts | 6° |
| 2026-05-06 14:10 | 1.39136 | 101.50752 | 28826 ft | 427 kts | 6° |
| 2026-05-06 14:10 | 1.42067 | 101.50953 | 28340 ft | 432 kts | 6° |
| 2026-05-06 14:11 | 1.45063 | 101.51158 | 27822 ft | 431 kts | 6° |
| 2026-05-06 14:11 | 1.48045 | 101.51361 | 27302 ft | 428 kts | 6° |
| 2026-05-06 14:11 | 1.51010 | 101.51562 | 26812 ft | 426 kts | 6° |
| 2026-05-06 14:11 | 1.53958 | 101.51762 | 26309 ft | 421 kts | 6° |
| 2026-05-06 14:12 | 1.56844 | 101.51957 | 25813 ft | 411 kts | 6° |
| 2026-05-06 14:12 | 1.59666 | 101.52147 | 25334 ft | 402 kts | 6° |
| 2026-05-06 14:12 | 1.62433 | 101.52335 | 24849 ft | 395 kts | 6° |
| 2026-05-06 14:12 | 1.65168 | 101.52521 | 24387 ft | 395 kts | 6° |
| 2026-05-06 14:13 | 1.67924 | 101.52710 | 23916 ft | 399 kts | 6° |
| 2026-05-06 14:13 | 1.70697 | 101.52900 | 23428 ft | 398 kts | 6° |
| 2026-05-06 14:13 | 1.73398 | 101.53083 | 22885 ft | 392 kts | 6° |
| 2026-05-06 14:13 | 1.76091 | 101.53265 | 22392 ft | 385 kts | 6° |
| 2026-05-06 14:14 | 1.78777 | 101.53447 | 21917 ft | 378 kts | 6° |
| 2026-05-06 14:14 | 1.81351 | 101.53848 | 21308 ft | 373 kts | 22° |
| 2026-05-06 14:14 | 1.83559 | 101.55075 | 20669 ft | 367 kts | 42° |
| 2026-05-06 14:14 | 1.85291 | 101.56954 | 20047 ft | 362 kts | 54° |
| 2026-05-06 14:15 | 1.86792 | 101.58962 | 19432 ft | 360 kts | 55° |
| 2026-05-06 14:15 | 1.88251 | 101.60945 | 18861 ft | 358 kts | 55° |
| 2026-05-06 14:15 | 1.89721 | 101.62937 | 18327 ft | 355 kts | 54° |
| 2026-05-06 14:15 | 1.91187 | 101.64910 | 17732 ft | 352 kts | 54° |
| 2026-05-06 14:16 | 1.92646 | 101.66859 | 17130 ft | 348 kts | 54° |
| 2026-05-06 14:16 | 1.94095 | 101.68786 | 16558 ft | 345 kts | 54° |
| 2026-05-06 14:16 | 1.95520 | 101.70675 | 16312 ft | 331 kts | 54° |
| 2026-05-06 14:16 | 1.96871 | 101.72464 | 16127 ft | 317 kts | 54° |
| 2026-05-06 14:17 | 1.98189 | 101.74208 | 15644 ft | 313 kts | 54° |
| 2026-05-06 14:17 | 1.99503 | 101.75949 | 14940 ft | 317 kts | 54° |
| 2026-05-06 14:17 | 2.00857 | 101.77743 | 14142 ft | 325 kts | 54° |
| 2026-05-06 14:17 | 2.02217 | 101.79544 | 13496 ft | 325 kts | 54° |
| 2026-05-06 14:18 | 2.03564 | 101.81328 | 12773 ft | 318 kts | 53° |
| 2026-05-06 14:18 | 2.04886 | 101.83077 | 12030 ft | 313 kts | 53° |
| 2026-05-06 14:18 | 2.06182 | 101.84793 | 11483 ft | 303 kts | 54° |
| 2026-05-06 14:18 | 2.07408 | 101.86414 | 11279 ft | 282 kts | 54° |
| 2026-05-06 14:19 | 2.08570 | 101.87951 | 10898 ft | 272 kts | 54° |
| 2026-05-06 14:19 | 2.09630 | 101.89480 | 10525 ft | 266 kts | 66° |
| 2026-05-06 14:19 | 2.10008 | 101.91255 | 10180 ft | 261 kts | 92° |
| 2026-05-06 14:19 | 2.09696 | 101.93027 | 9991 ft | 262 kts | 106° |
| 2026-05-06 14:20 | 2.09158 | 101.94803 | 9832 ft | 271 kts | 108° |
| 2026-05-06 14:20 | 2.08591 | 101.96603 | 9747 ft | 271 kts | 108° |
| 2026-05-06 14:20 | 2.08050 | 101.98398 | 9647 ft | 269 kts | 104° |
| 2026-05-06 14:20 | 2.07846 | 102.00274 | 9260 ft | 274 kts | 92° |
| 2026-05-06 14:21 | 2.07825 | 102.02184 | 8900 ft | 275 kts | 91° |
| 2026-05-06 14:21 | 2.07804 | 102.04084 | 8529 ft | 271 kts | 92° |
| 2026-05-06 14:21 | 2.07764 | 102.05952 | 8166 ft | 267 kts | 92° |
| 2026-05-06 14:21 | 2.07713 | 102.07792 | 7805 ft | 263 kts | 92° |
| 2026-05-06 14:22 | 2.07879 | 102.09595 | 7435 ft | 261 kts | 75° |
| 2026-05-06 14:22 | 2.08435 | 102.11316 | 7117 ft | 259 kts | 71° |
| 2026-05-06 14:22 | 2.09184 | 102.12967 | 7059 ft | 266 kts | 52° |
| 2026-05-06 14:22 | 2.10654 | 102.14044 | 6827 ft | 265 kts | 17° |
| 2026-05-06 14:23 | 2.12436 | 102.14115 | 6601 ft | 254 kts | 348° |
| 2026-05-06 14:23 | 2.14096 | 102.13593 | 6376 ft | 247 kts | 339° |
| 2026-05-06 14:23 | 2.15654 | 102.12983 | 6144 ft | 245 kts | 338° |
| 2026-05-06 14:23 | 2.17227 | 102.12352 | 6070 ft | 244 kts | 338° |
| 2026-05-06 14:24 | 2.18811 | 102.11722 | 6045 ft | 246 kts | 338° |
| 2026-05-06 14:24 | 2.20411 | 102.11093 | 6046 ft | 248 kts | 339° |
| 2026-05-06 14:24 | 2.22019 | 102.10465 | 6036 ft | 248 kts | 339° |
| 2026-05-06 14:24 | 2.23625 | 102.09842 | 6026 ft | 247 kts | 339° |
| 2026-05-06 14:25 | 2.25228 | 102.09223 | 6028 ft | 247 kts | 339° |
| 2026-05-06 14:25 | 2.26847 | 102.08599 | 6045 ft | 251 kts | 339° |
| 2026-05-06 14:25 | 2.28434 | 102.07841 | 5873 ft | 257 kts | 324° |
| 2026-05-06 14:25 | 2.29804 | 102.06697 | 5656 ft | 256 kts | 317° |
| 2026-05-06 14:26 | 2.31081 | 102.05497 | 5407 ft | 254 kts | 316° |
| 2026-05-06 14:26 | 2.32378 | 102.04274 | 5159 ft | 252 kts | 317° |
| 2026-05-06 14:26 | 2.33643 | 102.03098 | 4923 ft | 251 kts | 317° |
| 2026-05-06 14:26 | 2.34923 | 102.01926 | 4683 ft | 249 kts | 318° |
| 2026-05-06 14:27 | 2.36200 | 102.00769 | 4563 ft | 245 kts | 319° |
| 2026-05-06 14:27 | 2.37457 | 101.99638 | 4525 ft | 242 kts | 319° |
| 2026-05-06 14:27 | 2.38704 | 101.98521 | 4513 ft | 239 kts | 319° |
| 2026-05-06 14:27 | 2.39943 | 101.97415 | 4512 ft | 239 kts | 319° |
| 2026-05-06 14:28 | 2.41191 | 101.96302 | 4521 ft | 240 kts | 319° |
| 2026-05-06 14:28 | 2.42412 | 101.95216 | 4499 ft | 229 kts | 319° |
| 2026-05-06 14:28 | 2.43569 | 101.94186 | 4493 ft | 215 kts | 319° |
| 2026-05-06 14:28 | 2.44655 | 101.93221 | 4516 ft | 206 kts | 319° |
| 2026-05-06 14:29 | 2.45722 | 101.92273 | 4504 ft | 205 kts | 319° |
| 2026-05-06 14:29 | 2.46792 | 101.91323 | 4499 ft | 206 kts | 319° |
| 2026-05-06 14:29 | 2.47860 | 101.90373 | 4502 ft | 205 kts | 319° |
| 2026-05-06 14:29 | 2.48986 | 101.89503 | 4506 ft | 204 kts | 328° |
| 2026-05-06 14:30 | 2.50191 | 101.88759 | 4515 ft | 203 kts | 329° |
| 2026-05-06 14:30 | 2.51383 | 101.88004 | 4530 ft | 202 kts | 328° |
| 2026-05-06 14:30 | 2.52552 | 101.87237 | 4509 ft | 198 kts | 327° |
| 2026-05-06 14:30 | 2.53699 | 101.86471 | 4532 ft | 199 kts | 327° |
| 2026-05-06 14:31 | 2.54815 | 101.85720 | 4497 ft | 188 kts | 327° |
| 2026-05-06 14:31 | 2.55878 | 101.85002 | 4278 ft | 181 kts | 327° |
| 2026-05-06 14:31 | 2.56909 | 101.84306 | 4066 ft | 177 kts | 327° |
| 2026-05-06 14:31 | 2.57922 | 101.83623 | 3826 ft | 175 kts | 327° |
| 2026-05-06 14:32 | 2.58922 | 101.82948 | 3631 ft | 177 kts | 327° |
| 2026-05-06 14:32 | 2.59941 | 101.82260 | 3406 ft | 176 kts | 326° |
| 2026-05-06 14:32 | 2.60957 | 101.81574 | 3183 ft | 176 kts | 327° |
| 2026-05-06 14:32 | 2.61983 | 101.80882 | 2956 ft | 175 kts | 326° |
| 2026-05-06 14:33 | 2.62977 | 101.80211 | 2735 ft | 174 kts | 326° |
| 2026-05-06 14:33 | 2.63981 | 101.79533 | 2512 ft | 174 kts | 326° |
| 2026-05-06 14:33 | 2.64988 | 101.78853 | 2291 ft | 174 kts | 326° |
| 2026-05-06 14:33 | 2.65987 | 101.78178 | 2065 ft | 173 kts | 326° |
| 2026-05-06 14:34 | 2.66977 | 101.77510 | 1850 ft | 171 kts | 326° |
| 2026-05-06 14:34 | 2.67958 | 101.76848 | 1632 ft | 170 kts | 326° |
| 2026-05-06 14:34 | 2.68930 | 101.76193 | 1440 ft | 164 kts | 327° |
| 2026-05-06 14:34 | 2.69862 | 101.75562 | 1196 ft | 159 kts | 327° |
| 2026-05-06 14:35 | 2.70776 | 101.74945 | 1019 ft | 159 kts | 327° |
| 2026-05-06 14:35 | 2.71694 | 101.74327 | 810 ft | 158 kts | 327° |
| 2026-05-06 14:35 | 2.72590 | 101.73722 | 632 ft | 155 kts | 326° |
| 2026-05-06 14:35 | 2.73484 | 101.73117 | 437 ft | 156 kts | 326° |
| 2026-05-06 14:36 | 2.74379 | 101.72515 | 227 ft | 154 kts | 326° |
| 2026-05-06 14:36 | 2.75256 | 101.71926 | 81 ft | 149 kts | 326° |
| 2026-05-06 14:36 | 2.75983 | 101.71437 | 73 ft | 96 kts | 326° |
| 2026-05-06 14:36 | 2.76385 | 101.71166 | 67 ft | 57 kts | 324° |
| 2026-05-06 14:37 | 2.76562 | 101.70953 | 63 ft | 27 kts | 294° |
| 2026-05-06 14:37 | 2.76573 | 101.70865 | 62 ft | 3 kts | 229° |
| 2026-05-06 14:37 | 2.76556 | 101.70852 | 60 ft | 3 kts | 213° |
| 2026-05-06 14:37 | 2.76532 | 101.70848 | 60 ft | 4 kts | 176° |
| 2026-05-06 14:38 | 2.76507 | 101.70858 | 62 ft | 4 kts | 148° |
| 2026-05-06 14:38 | 2.76483 | 101.70874 | 64 ft | 4 kts | 147° |
| 2026-05-06 14:38 | 2.76457 | 101.70891 | 61 ft | 5 kts | 144° |
| 2026-05-06 14:38 | 2.76425 | 101.70914 | 65 ft | 6 kts | 144° |
| 2026-05-06 14:39 | 2.76385 | 101.70941 | 61 ft | 8 kts | 146° |
| 2026-05-06 14:39 | 2.76335 | 101.70974 | 62 ft | 10 kts | 146° |
| 2026-05-06 14:39 | 2.76273 | 101.71008 | 61 ft | 10 kts | 161° |
| 2026-05-06 14:39 | 2.76201 | 101.71033 | 62 ft | 11 kts | 162° |
| 2026-05-06 14:40 | 2.76121 | 101.71042 | 68 ft | 12 kts | 172° |
| 2026-05-06 14:40 | 2.76042 | 101.71064 | 65 ft | 12 kts | 158° |
| 2026-05-06 14:40 | 2.75994 | 101.71088 | 66 ft | 12 kts | 149° |
| 2026-05-06 14:40 | 2.75908 | 101.71146 | 65 ft | 19 kts | 146° |
| 2026-05-06 14:41 | 2.75780 | 101.71233 | 71 ft | 24 kts | 146° |
| 2026-05-06 14:41 | 2.75645 | 101.71322 | 69 ft | 23 kts | 146° |
| 2026-05-06 14:41 | 2.75476 | 101.71408 | 67 ft | 17 kts | 201° |
| 2026-05-06 14:41 | 2.75429 | 101.71350 | 72 ft | 17 kts | 239° |
| 2026-05-06 14:42 | 2.75337 | 101.71318 | 67 ft | 16 kts | 161° |
| 2026-05-06 14:42 | 2.75257 | 101.71270 | 69 ft | 15 kts | 225° |
| 2026-05-06 14:42 | 2.75168 | 101.71288 | 64 ft | 14 kts | 147° |
| 2026-05-06 14:42 | 2.75098 | 101.71303 | 64 ft | 9 kts | 234° |
| 2026-05-06 14:43 | 2.75070 | 101.71260 | 72 ft | 5 kts | 236° |
| 2026-05-06 14:43 | 2.75065 | 101.71252 | 72 ft | 0 kts | 236° |